Hellier, Kentucky
Current Conditions -  °F | °C
As of 5:15 PM on Tuesday 25 Nov 2014 (Local Time) from KPBX Reporting Station
Clear Clear  
Wind Chill: 46°   Ceiling: Unl
Heat Index: 49°   Visibility: 10mi
Dew Point: 26°   Wind: 6mph
Humidity: 41%   Direction: 330°NNW
Pressure: 30.06"   Gusts: NA
Location:  37.29°N, 82.47°W
Report Text: KPBX 252215Z AUTO 33005KT 10SM CLR 09/M03 A3006 RMK AO2 T00921034
Loading
Personal Weather Stations






























Interactive Weather Map New forecast layout! Learn more

10-Day Weather Forecast

Advertisements
Track Severe Weather on mobile